createdAt,value
2019-01-03T00:04:12.482Z,68.97
2019-01-03T00:09:41.572Z,69.02
2019-01-03T00:20:28.803Z,69.77
2019-01-03T00:25:50.618Z,69.88
2019-01-03T00:31:12.319Z,70.04
2019-01-03T00:36:53.641Z,70.26
2019-01-03T00:42:17.919Z,70.48
2019-01-03T00:47:43.546Z,70.33
2019-01-03T00:53:09.559Z,70.51
2019-01-03T00:58:31.246Z,69.86
2019-01-03T01:03:53.220Z,70.43
2019-01-03T01:09:25.786Z,70.35
2019-01-03T01:14:48.902Z,69.98
2019-01-03T01:20:24.136Z,70.65
2019-01-03T01:25:42.229Z,71.03
2019-01-03T01:31:04.528Z,70.93
2019-01-03T01:36:26.404Z,71.01
2019-01-03T01:41:48.764Z,71.23
2019-01-03T01:47:10.536Z,71.83
2019-01-03T01:52:36.570Z,71.29
2019-01-03T01:57:58.548Z,71.33
2019-01-03T02:03:22.232Z,71.47
2019-01-03T02:09:03.672Z,71.97
2019-01-03T02:14:32.654Z,72.17
2019-01-03T02:20:01.883Z,72.46
2019-01-03T02:25:24.470Z,72.73
2019-01-03T02:30:46.352Z,73.24
2019-01-03T02:36:09.539Z,72.86
2019-01-03T02:41:28.607Z,73.10
2019-01-03T02:46:42.579Z,73.26
2019-01-03T02:52:08.152Z,73.15
2019-01-03T02:57:34.026Z,73.21
2019-01-03T03:02:55.892Z,73.15
2019-01-03T03:08:17.644Z,72.89
2019-01-03T03:13:40.432Z,73.02
2019-01-03T03:18:56.355Z,72.86
2019-01-03T03:24:21.085Z,73.71
2019-01-03T03:29:53.060Z,73.85
2019-01-03T03:35:31.508Z,74.07
2019-01-03T03:40:54.657Z,73.78
2019-01-03T03:46:24.336Z,73.87
2019-01-03T03:51:46.346Z,73.71
2019-01-03T03:57:24.791Z,73.84
2019-01-03T04:02:46.865Z,73.86
2019-01-03T04:08:22.096Z,72.96
2019-01-03T04:13:57.595Z,72.37
2019-01-03T04:19:29.829Z,71.94
2019-01-03T04:24:59.501Z,71.88
2019-01-03T04:30:37.774Z,71.55
2019-01-03T04:36:04.476Z,71.25
2019-01-03T04:41:26.209Z,72.04
2019-01-03T04:46:58.318Z,72.44
2019-01-03T04:52:20.114Z,72.17
2019-01-03T04:57:43.043Z,72.59
2019-01-03T05:03:04.786Z,73.14
2019-01-03T05:08:36.984Z,73.16
2019-01-03T05:13:58.584Z,72.62
2019-01-03T05:19:28.694Z,72.17
2019-01-03T05:24:51.788Z,71.41
2019-01-03T05:30:18.309Z,71.76
2019-01-03T05:35:40.897Z,72.02
2019-01-03T05:41:08.094Z,71.62
2019-01-03T05:46:35.340Z,71.72
2019-01-03T05:52:01.000Z,71.21
2019-01-03T05:57:30.071Z,70.91
2019-01-03T06:02:53.010Z,70.55
2019-01-03T06:08:15.682Z,70.51
2019-01-03T06:13:32.933Z,71.40
2019-01-03T06:19:10.145Z,70.04
2019-01-03T06:24:33.142Z,70.50
2019-01-03T06:29:55.054Z,70.63
2019-01-03T06:35:30.532Z,70.59
2019-01-03T06:41:08.739Z,70.48
2019-01-03T06:46:34.036Z,70.73
2019-01-03T06:51:56.132Z,70.09
2019-01-03T06:57:31.178Z,70.22
2019-01-03T07:02:53.946Z,70.11
2019-01-03T07:08:28.901Z,70.17
2019-01-03T07:13:50.965Z,69.79
2019-01-03T07:19:07.285Z,70.23
2019-01-03T07:24:29.043Z,70.46
2019-01-03T07:29:50.802Z,70.01
2019-01-03T07:35:13.659Z,69.35
2019-01-03T07:40:35.203Z,69.16
2019-01-03T07:45:54.830Z,68.84
2019-01-03T07:51:23.730Z,68.59
2019-01-03T07:56:58.908Z,68.76
2019-01-03T08:02:22.368Z,68.69
2019-01-03T08:07:46.529Z,68.08
2019-01-03T08:13:27.939Z,68.82
2019-01-03T08:18:56.586Z,67.78
2019-01-03T08:24:31.557Z,67.89
2019-01-03T08:30:06.446Z,68.51
2019-01-03T08:35:41.561Z,67.83
2019-01-03T08:41:23.007Z,67.00
2019-01-03T08:46:45.245Z,67.06
2019-01-03T08:52:20.280Z,66.23
2019-01-03T08:57:41.990Z,66.20
2019-01-03T09:03:04.905Z,65.80
2019-01-03T09:08:27.723Z,65.39
2019-01-03T09:13:56.850Z,65.17
2019-01-03T09:19:18.524Z,64.49
2019-01-03T09:24:56.573Z,64.49
2019-01-03T09:30:31.176Z,63.43
2019-01-03T09:36:09.199Z,62.71
2019-01-03T09:41:28.619Z,62.36
2019-01-03T09:46:32.529Z,62.46
2019-01-03T09:51:36.547Z,61.13
2019-01-03T09:56:40.426Z,61.12
2019-01-03T10:01:44.333Z,62.10
2019-01-03T10:06:48.254Z,60.60
2019-01-03T10:11:52.216Z,61.34
2019-01-03T10:16:56.113Z,60.69
2019-01-03T10:21:59.897Z,60.12
2019-01-03T10:27:03.878Z,60.35
2019-01-03T10:32:07.708Z,59.73
2019-01-03T10:37:11.567Z,59.82
2019-01-03T10:42:15.319Z,59.29
2019-01-03T10:47:19.315Z,58.13
2019-01-03T10:52:23.268Z,58.70
2019-01-03T10:57:27.175Z,59.63
2019-01-03T11:02:31.071Z,58.60
2019-01-03T11:07:34.887Z,59.16
2019-01-03T11:12:38.659Z,61.05
2019-01-03T11:17:42.451Z,60.99
2019-01-03T11:22:46.433Z,59.45
2019-01-03T11:27:50.249Z,59.41
2019-01-03T11:32:54.254Z,60.30
2019-01-03T11:37:58.306Z,59.92
2019-01-03T11:43:02.196Z,60.03
2019-01-03T11:48:06.141Z,59.96
2019-01-03T11:53:10.138Z,59.36
2019-01-03T11:58:14.131Z,60.40
2019-01-03T12:03:18.191Z,59.21
2019-01-03T12:08:22.139Z,58.34
2019-01-03T12:13:25.957Z,59.17
2019-01-03T12:18:29.813Z,59.93
2019-01-03T12:23:33.697Z,58.76
2019-01-03T12:28:37.625Z,59.37
2019-01-03T12:33:41.443Z,59.14
2019-01-03T12:38:45.360Z,59.56
2019-01-03T12:43:49.115Z,58.92
2019-01-03T12:48:52.994Z,59.52
2019-01-03T12:53:56.869Z,60.42
2019-01-03T12:59:00.580Z,60.30
2019-01-03T13:04:04.462Z,61.04
2019-01-03T13:09:15.345Z,62.09
2019-01-03T13:14:19.139Z,62.00
2019-01-03T13:19:23.099Z,62.04
2019-01-03T13:24:27.096Z,62.30
2019-01-03T13:29:31.048Z,62.29
2019-01-03T13:34:34.809Z,62.73
2019-01-03T13:39:38.545Z,62.00
2019-01-03T13:44:42.291Z,62.46
2019-01-03T13:49:46.160Z,62.61
2019-01-03T13:54:49.921Z,62.02
2019-01-03T13:59:53.753Z,62.27
2019-01-03T14:04:57.613Z,62.19
2019-01-03T14:10:01.434Z,62.17
2019-01-03T14:15:05.870Z,61.79
2019-01-03T14:20:11.866Z,61.23
2019-01-03T14:25:15.917Z,60.78
2019-01-03T14:30:20.656Z,60.47
2019-01-03T14:35:24.892Z,60.53
2019-01-03T14:40:28.889Z,60.42
2019-01-03T14:45:32.794Z,60.82
2019-01-03T14:50:38.605Z,61.26
2019-01-03T14:55:42.142Z,61.48
2019-01-03T15:00:46.025Z,61.90
2019-01-03T15:05:49.970Z,62.33
2019-01-03T15:10:53.750Z,62.54
2019-01-03T15:15:57.701Z,62.79
2019-01-03T15:21:01.515Z,63.10
2019-01-03T15:26:05.371Z,63.45
2019-01-03T15:31:09.203Z,65.08
2019-01-03T15:36:13.304Z,71.19
2019-01-03T15:41:17.296Z,71.19
2019-01-03T15:46:21.290Z,77.87
2019-01-03T15:51:25.260Z,79.39
2019-01-03T15:56:29.311Z,78.06
2019-01-03T16:01:33.204Z,78.93
2019-01-03T16:06:37.077Z,80.87
2019-01-03T16:11:40.990Z,81.07
2019-01-03T16:16:45.155Z,80.61
2019-01-03T16:21:49.025Z,80.61
2019-01-03T16:26:53.000Z,80.71
2019-01-03T16:31:57.204Z,79.50
2019-01-03T16:37:01.184Z,79.22
2019-01-03T16:42:05.443Z,78.50
2019-01-03T16:47:09.660Z,79.33
2019-01-03T16:52:14.043Z,79.03
2019-01-03T16:57:18.163Z,77.92
2019-01-03T17:02:22.188Z,78.05
2019-01-03T17:07:28.130Z,77.44
2019-01-03T17:12:33.462Z,76.89
2019-01-03T17:17:37.531Z,76.44
2019-01-03T17:22:41.618Z,76.04
2019-01-03T17:27:45.943Z,76.50
2019-01-03T17:32:50.122Z,75.69
2019-01-03T17:37:54.083Z,76.08
2019-01-03T17:42:59.387Z,76.49
2019-01-03T17:48:03.456Z,75.96
2019-01-03T17:53:07.610Z,76.07
2019-01-03T17:58:11.601Z,75.89
2019-01-03T18:03:15.377Z,75.88
2019-01-03T18:08:19.290Z,76.05
2019-01-03T18:13:23.295Z,76.61
2019-01-03T18:18:27.353Z,76.08
2019-01-03T18:23:31.366Z,75.60
2019-01-03T18:28:35.383Z,75.21
2019-01-03T18:33:39.289Z,75.46
2019-01-03T18:38:43.190Z,75.75
2019-01-03T18:43:47.240Z,75.68
2019-01-03T18:48:51.295Z,75.39
2019-01-03T18:53:55.311Z,75.31
2019-01-03T18:58:59.368Z,75.37
2019-01-03T19:04:03.477Z,74.41
2019-01-03T19:09:08.080Z,74.46
2019-01-03T19:14:12.131Z,73.62
2019-01-03T19:19:16.594Z,74.33
2019-01-03T19:24:20.498Z,74.66
2019-01-03T19:29:24.310Z,75.02
2019-01-03T19:34:28.265Z,75.98
2019-01-03T19:39:32.123Z,75.56
2019-01-03T19:44:36.072Z,76.16
2019-01-03T19:49:40.107Z,76.24
2019-01-03T19:54:44.029Z,75.11
2019-01-03T19:59:47.875Z,75.11
2019-01-03T20:04:52.080Z,76.26
2019-01-03T20:09:56.124Z,75.78
2019-01-03T20:15:00.225Z,75.75
2019-01-03T20:20:04.389Z,75.66
2019-01-03T20:25:09.054Z,76.26
2019-01-03T20:30:12.964Z,76.19
2019-01-03T20:35:16.871Z,76.04
2019-01-03T20:40:20.885Z,75.55
2019-01-03T20:45:24.871Z,75.55
2019-01-03T20:50:28.712Z,76.23
2019-01-03T20:55:32.624Z,75.88
2019-01-03T21:00:36.597Z,75.47
2019-01-03T21:05:40.726Z,75.13
2019-01-03T21:10:44.836Z,75.38
2019-01-03T21:15:48.930Z,75.11
2019-01-03T21:20:53.124Z,75.54
2019-01-03T21:25:56.998Z,76.62
2019-01-03T21:31:01.080Z,76.48
2019-01-03T21:36:05.298Z,77.00
2019-01-03T21:41:09.371Z,76.67
2019-01-03T21:46:13.465Z,77.18
2019-01-03T21:51:17.599Z,77.94
2019-01-03T21:56:21.773Z,77.19
2019-01-03T22:01:25.671Z,76.60
2019-01-03T22:06:29.608Z,76.10
2019-01-03T22:11:33.715Z,76.23
2019-01-03T22:16:37.823Z,75.70
2019-01-03T22:21:41.964Z,76.03
2019-01-03T22:26:45.987Z,76.16
2019-01-03T22:31:50.104Z,75.80
2019-01-03T22:36:54.265Z,75.35
2019-01-03T22:41:58.373Z,74.81
2019-01-03T22:47:02.449Z,74.61
2019-01-03T22:52:06.589Z,74.10
2019-01-03T22:57:10.502Z,74.70
2019-01-03T23:02:14.383Z,74.43
2019-01-03T23:07:18.235Z,74.39
2019-01-03T23:12:22.039Z,74.39
2019-01-03T23:17:26.214Z,74.46
2019-01-03T23:22:30.086Z,77.05
2019-01-03T23:27:34.226Z,77.05
2019-01-03T23:32:38.433Z,76.91
2019-01-03T23:37:42.433Z,77.15
2019-01-03T23:42:46.632Z,76.45
2019-01-03T23:47:54.094Z,75.36
2019-01-03T23:52:58.199Z,75.26
2019-01-03T23:58:02.224Z,76.35
